<?xml version="1.0" encoding="UTF-8" standalone="no" ?>
<gpx xmlns="http://www.topografix.com/GPX/1/1" xmlns:xsi="http://www.w3.org/2001/XMLSchema-instance" xsi:schemaLocation="http://www.topografix.com/GPX/1/1 http://www.topografix.com/GPX/1/1/gpx.xsd" version="1.1" creator="VisuGPX - https://www.visugpx.com">
  <metadata>
    <name>PIEGROS LA CLASTRE</name>
  </metadata>
  <trk>
    <name><![CDATA[PIEGROS LA CLASTRE]]></name>
    <trkseg>
      <trkpt lat="44.69803" lon="5.09805">
        <ele>239.02</ele>
        <time>2022-03-17T08:15:37Z</time>
      </trkpt>
      <trkpt lat="44.69804" lon="5.09799">
        <ele>238.06</ele>
        <time>2022-03-17T08:18:47Z</time>
      </trkpt>
      <trkpt lat="44.69778" lon="5.09837">
        <ele>240.95</ele>
        <time>2022-03-17T08:20:06Z</time>
      </trkpt>
      <trkpt lat="44.6977" lon="5.09881">
        <ele>245.75</ele>
        <time>2022-03-17T08:20:53Z</time>
      </trkpt>
      <trkpt lat="44.69794" lon="5.09904">
        <ele>249.6</ele>
        <time>2022-03-17T08:21:23Z</time>
      </trkpt>
      <trkpt lat="44.69823" lon="5.09892">
        <ele>249.6</ele>
        <time>2022-03-17T08:21:49Z</time>
      </trkpt>
      <trkpt lat="44.69849" lon="5.09882">
        <ele>248.16</ele>
        <time>2022-03-17T08:22:15Z</time>
      </trkpt>
      <trkpt lat="44.69877" lon="5.09872">
        <ele>248.16</ele>
        <time>2022-03-17T08:22:42Z</time>
      </trkpt>
      <trkpt lat="44.69868" lon="5.09903">
        <ele>254.41</ele>
        <time>2022-03-17T08:23:30Z</time>
      </trkpt>
      <trkpt lat="44.69843" lon="5.09926">
        <ele>258.25</ele>
        <time>2022-03-17T08:24:01Z</time>
      </trkpt>
      <trkpt lat="44.69822" lon="5.09949">
        <ele>262.1</ele>
        <time>2022-03-17T08:24:33Z</time>
      </trkpt>
      <trkpt lat="44.69801" lon="5.09978">
        <ele>266.42</ele>
        <time>2022-03-17T08:25:07Z</time>
      </trkpt>
      <trkpt lat="44.69792" lon="5.10018">
        <ele>271.23</ele>
        <time>2022-03-17T08:25:42Z</time>
      </trkpt>
      <trkpt lat="44.69784" lon="5.10058">
        <ele>272.67</ele>
        <time>2022-03-17T08:26:10Z</time>
      </trkpt>
      <trkpt lat="44.69768" lon="5.10091">
        <ele>273.63</ele>
        <time>2022-03-17T08:26:37Z</time>
      </trkpt>
      <trkpt lat="44.69742" lon="5.10107">
        <ele>276.04</ele>
        <time>2022-03-17T08:27:06Z</time>
      </trkpt>
      <trkpt lat="44.69712" lon="5.1012">
        <ele>282.77</ele>
        <time>2022-03-17T08:27:51Z</time>
      </trkpt>
      <trkpt lat="44.69685" lon="5.10132">
        <ele>287.09</ele>
        <time>2022-03-17T08:28:28Z</time>
      </trkpt>
      <trkpt lat="44.6956" lon="5.10233">
        <ele>309.68</ele>
        <time>2022-03-17T08:37:03Z</time>
      </trkpt>
      <trkpt lat="44.69521" lon="5.10299">
        <ele>316.89</ele>
        <time>2022-03-17T08:38:02Z</time>
      </trkpt>
      <trkpt lat="44.69489" lon="5.10341">
        <ele>315.93</ele>
        <time>2022-03-17T08:38:39Z</time>
      </trkpt>
      <trkpt lat="44.69434" lon="5.10352">
        <ele>317.85</ele>
        <time>2022-03-17T08:39:21Z</time>
      </trkpt>
      <trkpt lat="44.69323" lon="5.10376">
        <ele>328.91</ele>
        <time>2022-03-17T08:41:23Z</time>
      </trkpt>
      <trkpt lat="44.69064" lon="5.10379">
        <ele>326.99</ele>
        <time>2022-03-17T08:45:54Z</time>
      </trkpt>
      <trkpt lat="44.68951" lon="5.10324">
        <ele>337.56</ele>
        <time>2022-03-17T08:47:55Z</time>
      </trkpt>
      <trkpt lat="44.6885" lon="5.10267">
        <ele>342.37</ele>
        <time>2022-03-17T08:49:40Z</time>
      </trkpt>
      <trkpt lat="44.68664" lon="5.10262">
        <ele>339.96</ele>
        <time>2022-03-17T08:52:25Z</time>
      </trkpt>
      <trkpt lat="44.68446" lon="5.1027">
        <ele>324.58</ele>
        <time>2022-03-17T09:00:24Z</time>
      </trkpt>
      <trkpt lat="44.68407" lon="5.10242">
        <ele>320.74</ele>
        <time>2022-03-17T09:01:10Z</time>
      </trkpt>
      <trkpt lat="44.68377" lon="5.10222">
        <ele>323.14</ele>
        <time>2022-03-17T09:01:39Z</time>
      </trkpt>
      <trkpt lat="44.68344" lon="5.10204">
        <ele>328.43</ele>
        <time>2022-03-17T09:02:16Z</time>
      </trkpt>
      <trkpt lat="44.68315" lon="5.10189">
        <ele>333.71</ele>
        <time>2022-03-17T09:02:50Z</time>
      </trkpt>
      <trkpt lat="44.6829" lon="5.10167">
        <ele>336.6</ele>
        <time>2022-03-17T09:03:22Z</time>
      </trkpt>
      <trkpt lat="44.68264" lon="5.10144">
        <ele>337.08</ele>
        <time>2022-03-17T09:03:50Z</time>
      </trkpt>
      <trkpt lat="44.68241" lon="5.10115">
        <ele>336.12</ele>
        <time>2022-03-17T09:04:18Z</time>
      </trkpt>
      <trkpt lat="44.68216" lon="5.10081">
        <ele>332.75</ele>
        <time>2022-03-17T09:04:50Z</time>
      </trkpt>
      <trkpt lat="44.68187" lon="5.10033">
        <ele>329.87</ele>
        <time>2022-03-17T09:05:26Z</time>
      </trkpt>
      <trkpt lat="44.68153" lon="5.1">
        <ele>328.43</ele>
        <time>2022-03-17T09:05:56Z</time>
      </trkpt>
      <trkpt lat="44.68129" lon="5.09976">
        <ele>328.43</ele>
        <time>2022-03-17T09:06:20Z</time>
      </trkpt>
      <trkpt lat="44.68104" lon="5.09953">
        <ele>328.43</ele>
        <time>2022-03-17T09:06:49Z</time>
      </trkpt>
      <trkpt lat="44.68076" lon="5.09942">
        <ele>330.35</ele>
        <time>2022-03-17T09:07:18Z</time>
      </trkpt>
      <trkpt lat="44.68046" lon="5.09931">
        <ele>331.31</ele>
        <time>2022-03-17T09:07:46Z</time>
      </trkpt>
      <trkpt lat="44.68015" lon="5.09919">
        <ele>332.75</ele>
        <time>2022-03-17T09:08:14Z</time>
      </trkpt>
      <trkpt lat="44.67987" lon="5.09902">
        <ele>335.64</ele>
        <time>2022-03-17T09:08:46Z</time>
      </trkpt>
      <trkpt lat="44.67954" lon="5.09865">
        <ele>343.33</ele>
        <time>2022-03-17T09:10:43Z</time>
      </trkpt>
      <trkpt lat="44.67894" lon="5.09861">
        <ele>366.88</ele>
        <time>2022-03-17T09:13:04Z</time>
      </trkpt>
      <trkpt lat="44.67849" lon="5.09864">
        <ele>372.65</ele>
        <time>2022-03-17T09:13:54Z</time>
      </trkpt>
      <trkpt lat="44.67796" lon="5.09858">
        <ele>376.01</ele>
        <time>2022-03-17T09:20:00Z</time>
      </trkpt>
      <trkpt lat="44.67763" lon="5.09857">
        <ele>376.01</ele>
        <time>2022-03-17T09:20:29Z</time>
      </trkpt>
      <trkpt lat="44.67767" lon="5.09913">
        <ele>380.34</ele>
        <time>2022-03-17T09:21:22Z</time>
      </trkpt>
      <trkpt lat="44.67777" lon="5.09952">
        <ele>383.22</ele>
        <time>2022-03-17T09:21:55Z</time>
      </trkpt>
      <trkpt lat="44.6777" lon="5.09991">
        <ele>386.11</ele>
        <time>2022-03-17T09:22:26Z</time>
      </trkpt>
      <trkpt lat="44.6776" lon="5.09957">
        <ele>390.43</ele>
        <time>2022-03-17T09:23:07Z</time>
      </trkpt>
      <trkpt lat="44.67737" lon="5.09936">
        <ele>393.32</ele>
        <time>2022-03-17T09:23:41Z</time>
      </trkpt>
      <trkpt lat="44.67655" lon="5.10009">
        <ele>405.81</ele>
        <time>2022-03-17T09:25:37Z</time>
      </trkpt>
      <trkpt lat="44.67545" lon="5.10036">
        <ele>422.64</ele>
        <time>2022-03-17T09:28:10Z</time>
      </trkpt>
      <trkpt lat="44.67434" lon="5.10104">
        <ele>440.9</ele>
        <time>2022-03-17T09:30:47Z</time>
      </trkpt>
      <trkpt lat="44.6734" lon="5.10161">
        <ele>450.03</ele>
        <time>2022-03-17T09:32:40Z</time>
      </trkpt>
      <trkpt lat="44.67313" lon="5.10187">
        <ele>451.48</ele>
        <time>2022-03-17T09:33:14Z</time>
      </trkpt>
      <trkpt lat="44.6707" lon="5.10311">
        <ele>501.46</ele>
        <time>2022-03-17T09:46:30Z</time>
      </trkpt>
      <trkpt lat="44.67116" lon="5.1018">
        <ele>498.58</ele>
        <time>2022-03-17T09:48:06Z</time>
      </trkpt>
      <trkpt lat="44.67155" lon="5.10096">
        <ele>494.26</ele>
        <time>2022-03-17T09:49:04Z</time>
      </trkpt>
      <trkpt lat="44.67181" lon="5.10033">
        <ele>487.53</ele>
        <time>2022-03-17T09:49:46Z</time>
      </trkpt>
      <trkpt lat="44.67245" lon="5.09958">
        <ele>478.39</ele>
        <time>2022-03-17T09:51:00Z</time>
      </trkpt>
      <trkpt lat="44.67268" lon="5.09925">
        <ele>475.03</ele>
        <time>2022-03-17T09:51:26Z</time>
      </trkpt>
      <trkpt lat="44.6729" lon="5.09897">
        <ele>471.66</ele>
        <time>2022-03-17T09:51:52Z</time>
      </trkpt>
      <trkpt lat="44.67312" lon="5.0987">
        <ele>470.7</ele>
        <time>2022-03-17T09:52:16Z</time>
      </trkpt>
      <trkpt lat="44.67314" lon="5.09831">
        <ele>469.26</ele>
        <time>2022-03-17T09:52:42Z</time>
      </trkpt>
      <trkpt lat="44.67283" lon="5.09721">
        <ele>475.03</ele>
        <time>2022-03-17T09:54:31Z</time>
      </trkpt>
      <trkpt lat="44.6725" lon="5.09714">
        <ele>475.99</ele>
        <time>2022-03-17T09:55:03Z</time>
      </trkpt>
      <trkpt lat="44.67186" lon="5.09605">
        <ele>480.8</ele>
        <time>2022-03-17T09:56:44Z</time>
      </trkpt>
      <trkpt lat="44.67183" lon="5.09563">
        <ele>478.87</ele>
        <time>2022-03-17T09:57:10Z</time>
      </trkpt>
      <trkpt lat="44.67185" lon="5.09522">
        <ele>479.35</ele>
        <time>2022-03-17T09:57:37Z</time>
      </trkpt>
      <trkpt lat="44.67191" lon="5.0948">
        <ele>480.32</ele>
        <time>2022-03-17T09:58:32Z</time>
      </trkpt>
      <trkpt lat="44.67193" lon="5.09437">
        <ele>480.8</ele>
        <time>2022-03-17T09:59:00Z</time>
      </trkpt>
      <trkpt lat="44.67195" lon="5.09393">
        <ele>480.8</ele>
        <time>2022-03-17T09:59:29Z</time>
      </trkpt>
      <trkpt lat="44.67199" lon="5.09349">
        <ele>479.35</ele>
        <time>2022-03-17T09:59:56Z</time>
      </trkpt>
      <trkpt lat="44.67212" lon="5.09308">
        <ele>478.87</ele>
        <time>2022-03-17T10:00:22Z</time>
      </trkpt>
      <trkpt lat="44.6721" lon="5.09162">
        <ele>480.8</ele>
        <time>2022-03-17T10:02:01Z</time>
      </trkpt>
      <trkpt lat="44.6733" lon="5.09006">
        <ele>497.62</ele>
        <time>2022-03-17T10:05:32Z</time>
      </trkpt>
      <trkpt lat="44.67334" lon="5.08728">
        <ele>510.12</ele>
        <time>2022-03-17T10:09:12Z</time>
      </trkpt>
      <trkpt lat="44.67351" lon="5.08584">
        <ele>503.87</ele>
        <time>2022-03-17T10:10:54Z</time>
      </trkpt>
      <trkpt lat="44.67373" lon="5.08517">
        <ele>502.43</ele>
        <time>2022-03-17T10:11:46Z</time>
      </trkpt>
      <trkpt lat="44.67398" lon="5.08491">
        <ele>501.46</ele>
        <time>2022-03-17T10:12:12Z</time>
      </trkpt>
      <trkpt lat="44.67427" lon="5.08459">
        <ele>500.98</ele>
        <time>2022-03-17T10:12:51Z</time>
      </trkpt>
      <trkpt lat="44.67491" lon="5.08441">
        <ele>504.83</ele>
        <time>2022-03-17T10:14:03Z</time>
      </trkpt>
      <trkpt lat="44.67524" lon="5.08378">
        <ele>505.79</ele>
        <time>2022-03-17T10:14:54Z</time>
      </trkpt>
      <trkpt lat="44.6757" lon="5.08309">
        <ele>504.35</ele>
        <time>2022-03-17T10:15:59Z</time>
      </trkpt>
      <trkpt lat="44.6762" lon="5.08305">
        <ele>499.54</ele>
        <time>2022-03-17T10:16:57Z</time>
      </trkpt>
      <trkpt lat="44.67659" lon="5.08311">
        <ele>502.43</ele>
        <time>2022-03-17T10:17:33Z</time>
      </trkpt>
      <trkpt lat="44.67723" lon="5.08245">
        <ele>514.92</ele>
        <time>2022-03-17T10:19:19Z</time>
      </trkpt>
      <trkpt lat="44.67764" lon="5.08203">
        <ele>516.37</ele>
        <time>2022-03-17T10:20:10Z</time>
      </trkpt>
      <trkpt lat="44.67943" lon="5.08149">
        <ele>515.88</ele>
        <time>2022-03-17T10:25:36Z</time>
      </trkpt>
      <trkpt lat="44.68069" lon="5.08141">
        <ele>509.64</ele>
        <time>2022-03-17T10:27:49Z</time>
      </trkpt>
      <trkpt lat="44.68222" lon="5.08252">
        <ele>524.06</ele>
        <time>2022-03-17T10:33:04Z</time>
      </trkpt>
      <trkpt lat="44.68259" lon="5.08268">
        <ele>523.09</ele>
        <time>2022-03-17T10:37:12Z</time>
      </trkpt>
      <trkpt lat="44.68289" lon="5.08278">
        <ele>525.02</ele>
        <time>2022-03-17T10:37:42Z</time>
      </trkpt>
      <trkpt lat="44.68317" lon="5.0829">
        <ele>527.42</ele>
        <time>2022-03-17T10:38:09Z</time>
      </trkpt>
      <trkpt lat="44.68346" lon="5.08287">
        <ele>531.75</ele>
        <time>2022-03-17T10:38:42Z</time>
      </trkpt>
      <trkpt lat="44.6838" lon="5.08274">
        <ele>535.59</ele>
        <time>2022-03-17T10:39:24Z</time>
      </trkpt>
      <trkpt lat="44.6844" lon="5.08273">
        <ele>537.51</ele>
        <time>2022-03-17T10:40:24Z</time>
      </trkpt>
      <trkpt lat="44.6852" lon="5.08253">
        <ele>543.28</ele>
        <time>2022-03-17T10:42:43Z</time>
      </trkpt>
      <trkpt lat="44.68587" lon="5.08202">
        <ele>552.41</ele>
        <time>2022-03-17T10:44:14Z</time>
      </trkpt>
      <trkpt lat="44.68604" lon="5.0812">
        <ele>557.22</ele>
        <time>2022-03-17T10:45:18Z</time>
      </trkpt>
      <trkpt lat="44.68618" lon="5.08036">
        <ele>566.83</ele>
        <time>2022-03-17T10:46:36Z</time>
      </trkpt>
      <trkpt lat="44.68624" lon="5.07994">
        <ele>570.2</ele>
        <time>2022-03-17T10:47:12Z</time>
      </trkpt>
      <trkpt lat="44.6862" lon="5.07952">
        <ele>574.04</ele>
        <time>2022-03-17T10:47:48Z</time>
      </trkpt>
      <trkpt lat="44.68613" lon="5.07907">
        <ele>578.85</ele>
        <time>2022-03-17T10:48:26Z</time>
      </trkpt>
      <trkpt lat="44.68606" lon="5.07878">
        <ele>582.22</ele>
        <time>2022-03-17T10:49:46Z</time>
      </trkpt>
      <trkpt lat="44.68578" lon="5.07806">
        <ele>575.97</ele>
        <time>2022-03-17T10:52:57Z</time>
      </trkpt>
      <trkpt lat="44.68532" lon="5.0785">
        <ele>559.14</ele>
        <time>2022-03-17T11:38:16Z</time>
      </trkpt>
      <trkpt lat="44.68412" lon="5.08183">
        <ele>531.27</ele>
        <time>2022-03-17T11:43:06Z</time>
      </trkpt>
      <trkpt lat="44.68381" lon="5.08206">
        <ele>532.23</ele>
        <time>2022-03-17T11:43:39Z</time>
      </trkpt>
      <trkpt lat="44.68357" lon="5.08242">
        <ele>535.11</ele>
        <time>2022-03-17T11:44:11Z</time>
      </trkpt>
      <trkpt lat="44.6834" lon="5.08283">
        <ele>533.67</ele>
        <time>2022-03-17T11:44:42Z</time>
      </trkpt>
      <trkpt lat="44.68315" lon="5.08289">
        <ele>530.3</ele>
        <time>2022-03-17T11:45:07Z</time>
      </trkpt>
      <trkpt lat="44.68286" lon="5.08275">
        <ele>527.9</ele>
        <time>2022-03-17T11:45:33Z</time>
      </trkpt>
      <trkpt lat="44.68257" lon="5.08262">
        <ele>526.46</ele>
        <time>2022-03-17T11:45:59Z</time>
      </trkpt>
      <trkpt lat="44.68226" lon="5.08238">
        <ele>526.46</ele>
        <time>2022-03-17T11:49:21Z</time>
      </trkpt>
      <trkpt lat="44.68226" lon="5.08129">
        <ele>512.04</ele>
        <time>2022-03-17T11:51:08Z</time>
      </trkpt>
      <trkpt lat="44.68243" lon="5.08078">
        <ele>508.19</ele>
        <time>2022-03-17T11:51:53Z</time>
      </trkpt>
      <trkpt lat="44.68228" lon="5.08008">
        <ele>502.91</ele>
        <time>2022-03-17T11:52:49Z</time>
      </trkpt>
      <trkpt lat="44.68213" lon="5.07947">
        <ele>502.43</ele>
        <time>2022-03-17T11:53:33Z</time>
      </trkpt>
      <trkpt lat="44.68204" lon="5.07883">
        <ele>500.02</ele>
        <time>2022-03-17T11:54:16Z</time>
      </trkpt>
      <trkpt lat="44.68233" lon="5.07713">
        <ele>496.18</ele>
        <time>2022-03-17T11:56:27Z</time>
      </trkpt>
      <trkpt lat="44.68236" lon="5.07636">
        <ele>488.49</ele>
        <time>2022-03-17T11:57:23Z</time>
      </trkpt>
      <trkpt lat="44.68243" lon="5.07574">
        <ele>481.28</ele>
        <time>2022-03-17T11:58:09Z</time>
      </trkpt>
      <trkpt lat="44.68265" lon="5.075">
        <ele>471.18</ele>
        <time>2022-03-17T11:59:16Z</time>
      </trkpt>
      <trkpt lat="44.68298" lon="5.07488">
        <ele>472.14</ele>
        <time>2022-03-17T11:59:55Z</time>
      </trkpt>
      <trkpt lat="44.68329" lon="5.07479">
        <ele>474.07</ele>
        <time>2022-03-17T12:00:27Z</time>
      </trkpt>
      <trkpt lat="44.68359" lon="5.07462">
        <ele>475.03</ele>
        <time>2022-03-17T12:00:56Z</time>
      </trkpt>
      <trkpt lat="44.68389" lon="5.07448">
        <ele>477.91</ele>
        <time>2022-03-17T12:01:28Z</time>
      </trkpt>
      <trkpt lat="44.68424" lon="5.07445">
        <ele>481.76</ele>
        <time>2022-03-17T12:02:04Z</time>
      </trkpt>
      <trkpt lat="44.68455" lon="5.07435">
        <ele>484.16</ele>
        <time>2022-03-17T12:02:37Z</time>
      </trkpt>
      <trkpt lat="44.68484" lon="5.07421">
        <ele>484.64</ele>
        <time>2022-03-17T12:03:05Z</time>
      </trkpt>
      <trkpt lat="44.68515" lon="5.07405">
        <ele>483.2</ele>
        <time>2022-03-17T12:03:34Z</time>
      </trkpt>
      <trkpt lat="44.68544" lon="5.0739">
        <ele>483.2</ele>
        <time>2022-03-17T12:04:03Z</time>
      </trkpt>
      <trkpt lat="44.68575" lon="5.07372">
        <ele>483.2</ele>
        <time>2022-03-17T12:04:33Z</time>
      </trkpt>
      <trkpt lat="44.68595" lon="5.07338">
        <ele>481.28</ele>
        <time>2022-03-17T12:05:05Z</time>
      </trkpt>
      <trkpt lat="44.68603" lon="5.07292">
        <ele>478.87</ele>
        <time>2022-03-17T12:05:37Z</time>
      </trkpt>
      <trkpt lat="44.68593" lon="5.07248">
        <ele>473.59</ele>
        <time>2022-03-17T12:06:10Z</time>
      </trkpt>
      <trkpt lat="44.68591" lon="5.07182">
        <ele>464.93</ele>
        <time>2022-03-17T12:07:07Z</time>
      </trkpt>
      <trkpt lat="44.68601" lon="5.07133">
        <ele>461.09</ele>
        <time>2022-03-17T12:07:43Z</time>
      </trkpt>
      <trkpt lat="44.68723" lon="5.07236">
        <ele>437.54</ele>
        <time>2022-03-17T12:10:35Z</time>
      </trkpt>
      <trkpt lat="44.6879" lon="5.07221">
        <ele>434.17</ele>
        <time>2022-03-17T12:11:43Z</time>
      </trkpt>
      <trkpt lat="44.68815" lon="5.0719">
        <ele>431.77</ele>
        <time>2022-03-17T12:12:17Z</time>
      </trkpt>
      <trkpt lat="44.68838" lon="5.07119">
        <ele>425.52</ele>
        <time>2022-03-17T12:13:14Z</time>
      </trkpt>
      <trkpt lat="44.68855" lon="5.07073">
        <ele>424.56</ele>
        <time>2022-03-17T12:13:44Z</time>
      </trkpt>
      <trkpt lat="44.68872" lon="5.06978">
        <ele>415.91</ele>
        <time>2022-03-17T12:14:58Z</time>
      </trkpt>
      <trkpt lat="44.68895" lon="5.06914">
        <ele>407.74</ele>
        <time>2022-03-17T12:15:50Z</time>
      </trkpt>
      <trkpt lat="44.68937" lon="5.06856">
        <ele>398.6</ele>
        <time>2022-03-17T12:16:48Z</time>
      </trkpt>
      <trkpt lat="44.68929" lon="5.06783">
        <ele>378.9</ele>
        <time>2022-03-17T12:19:16Z</time>
      </trkpt>
      <trkpt lat="44.68931" lon="5.06744">
        <ele>372.65</ele>
        <time>2022-03-17T12:19:55Z</time>
      </trkpt>
      <trkpt lat="44.68961" lon="5.06726">
        <ele>365.44</ele>
        <time>2022-03-17T12:20:31Z</time>
      </trkpt>
      <trkpt lat="44.68992" lon="5.06718">
        <ele>359.67</ele>
        <time>2022-03-17T12:21:02Z</time>
      </trkpt>
      <trkpt lat="44.69022" lon="5.06706">
        <ele>354.38</ele>
        <time>2022-03-17T12:21:34Z</time>
      </trkpt>
      <trkpt lat="44.69054" lon="5.06692">
        <ele>351.02</ele>
        <time>2022-03-17T12:22:03Z</time>
      </trkpt>
      <trkpt lat="44.69082" lon="5.06676">
        <ele>347.65</ele>
        <time>2022-03-17T12:22:31Z</time>
      </trkpt>
      <trkpt lat="44.69106" lon="5.06657">
        <ele>343.33</ele>
        <time>2022-03-17T12:22:58Z</time>
      </trkpt>
      <trkpt lat="44.69128" lon="5.06628">
        <ele>340.44</ele>
        <time>2022-03-17T12:23:26Z</time>
      </trkpt>
      <trkpt lat="44.69149" lon="5.06599">
        <ele>338.04</ele>
        <time>2022-03-17T12:23:55Z</time>
      </trkpt>
      <trkpt lat="44.69179" lon="5.06573">
        <ele>338.52</ele>
        <time>2022-03-17T12:32:35Z</time>
      </trkpt>
      <trkpt lat="44.69208" lon="5.0656">
        <ele>340.92</ele>
        <time>2022-03-17T12:33:10Z</time>
      </trkpt>
      <trkpt lat="44.69237" lon="5.06572">
        <ele>344.29</ele>
        <time>2022-03-17T12:33:46Z</time>
      </trkpt>
      <trkpt lat="44.69274" lon="5.06593">
        <ele>347.17</ele>
        <time>2022-03-17T12:34:22Z</time>
      </trkpt>
      <trkpt lat="44.69302" lon="5.06618">
        <ele>349.58</ele>
        <time>2022-03-17T12:34:58Z</time>
      </trkpt>
      <trkpt lat="44.69332" lon="5.06614">
        <ele>350.54</ele>
        <time>2022-03-17T12:35:29Z</time>
      </trkpt>
      <trkpt lat="44.69366" lon="5.06614">
        <ele>351.02</ele>
        <time>2022-03-17T12:36:00Z</time>
      </trkpt>
      <trkpt lat="44.69403" lon="5.06617">
        <ele>352.94</ele>
        <time>2022-03-17T12:36:34Z</time>
      </trkpt>
      <trkpt lat="44.69434" lon="5.06614">
        <ele>355.34</ele>
        <time>2022-03-17T12:37:06Z</time>
      </trkpt>
      <trkpt lat="44.69466" lon="5.06614">
        <ele>355.83</ele>
        <time>2022-03-17T12:37:36Z</time>
      </trkpt>
      <trkpt lat="44.695" lon="5.06617">
        <ele>353.9</ele>
        <time>2022-03-17T12:38:08Z</time>
      </trkpt>
      <trkpt lat="44.69535" lon="5.06621">
        <ele>350.54</ele>
        <time>2022-03-17T12:38:42Z</time>
      </trkpt>
      <trkpt lat="44.69568" lon="5.06625">
        <ele>348.13</ele>
        <time>2022-03-17T12:39:12Z</time>
      </trkpt>
      <trkpt lat="44.69606" lon="5.0663">
        <ele>346.69</ele>
        <time>2022-03-17T12:39:47Z</time>
      </trkpt>
      <trkpt lat="44.69596" lon="5.06665">
        <ele>334.2</ele>
        <time>2022-03-17T12:40:58Z</time>
      </trkpt>
      <trkpt lat="44.69541" lon="5.06698">
        <ele>323.14</ele>
        <time>2022-03-17T12:42:04Z</time>
      </trkpt>
      <trkpt lat="44.69462" lon="5.06715">
        <ele>311.6</ele>
        <time>2022-03-17T12:43:32Z</time>
      </trkpt>
      <trkpt lat="44.69496" lon="5.06728">
        <ele>306.8</ele>
        <time>2022-03-17T12:44:08Z</time>
      </trkpt>
      <trkpt lat="44.69522" lon="5.06758">
        <ele>302.47</ele>
        <time>2022-03-17T12:44:44Z</time>
      </trkpt>
      <trkpt lat="44.69548" lon="5.06785">
        <ele>301.03</ele>
        <time>2022-03-17T12:45:14Z</time>
      </trkpt>
      <trkpt lat="44.69579" lon="5.0681">
        <ele>299.59</ele>
        <time>2022-03-17T12:45:47Z</time>
      </trkpt>
      <trkpt lat="44.69615" lon="5.06805">
        <ele>298.15</ele>
        <time>2022-03-17T12:46:23Z</time>
      </trkpt>
      <trkpt lat="44.69649" lon="5.06794">
        <ele>298.15</ele>
        <time>2022-03-17T12:46:59Z</time>
      </trkpt>
      <trkpt lat="44.69683" lon="5.06781">
        <ele>297.67</ele>
        <time>2022-03-17T12:47:40Z</time>
      </trkpt>
      <trkpt lat="44.69717" lon="5.06802">
        <ele>296.22</ele>
        <time>2022-03-17T12:48:12Z</time>
      </trkpt>
      <trkpt lat="44.69743" lon="5.06821">
        <ele>294.78</ele>
        <time>2022-03-17T12:48:40Z</time>
      </trkpt>
      <trkpt lat="44.69772" lon="5.06838">
        <ele>293.82</ele>
        <time>2022-03-17T12:49:07Z</time>
      </trkpt>
      <trkpt lat="44.69789" lon="5.0688">
        <ele>293.34</ele>
        <time>2022-03-17T12:49:43Z</time>
      </trkpt>
      <trkpt lat="44.69778" lon="5.06889">
        <ele>288.53</ele>
        <time>2022-03-17T12:51:02Z</time>
      </trkpt>
      <trkpt lat="44.69752" lon="5.06913">
        <ele>282.28</ele>
        <time>2022-03-17T12:51:39Z</time>
      </trkpt>
      <trkpt lat="44.69729" lon="5.06948">
        <ele>275.07</ele>
        <time>2022-03-17T12:52:14Z</time>
      </trkpt>
      <trkpt lat="44.69744" lon="5.07005">
        <ele>269.79</ele>
        <time>2022-03-17T12:53:11Z</time>
      </trkpt>
      <trkpt lat="44.69749" lon="5.07062">
        <ele>274.11</ele>
        <time>2022-03-17T12:54:20Z</time>
      </trkpt>
      <trkpt lat="44.69785" lon="5.07096">
        <ele>276.52</ele>
        <time>2022-03-17T12:55:19Z</time>
      </trkpt>
      <trkpt lat="44.69793" lon="5.07141">
        <ele>276.04</ele>
        <time>2022-03-17T12:56:01Z</time>
      </trkpt>
      <trkpt lat="44.69812" lon="5.0718">
        <ele>278.44</ele>
        <time>2022-03-17T12:56:35Z</time>
      </trkpt>
      <trkpt lat="44.6983" lon="5.07209">
        <ele>282.77</ele>
        <time>2022-03-17T12:57:12Z</time>
      </trkpt>
      <trkpt lat="44.69856" lon="5.07227">
        <ele>286.61</ele>
        <time>2022-03-17T12:57:49Z</time>
      </trkpt>
      <trkpt lat="44.69885" lon="5.07236">
        <ele>290.94</ele>
        <time>2022-03-17T12:58:28Z</time>
      </trkpt>
      <trkpt lat="44.69914" lon="5.07243">
        <ele>294.78</ele>
        <time>2022-03-17T12:59:06Z</time>
      </trkpt>
      <trkpt lat="44.69939" lon="5.07257">
        <ele>296.22</ele>
        <time>2022-03-17T12:59:38Z</time>
      </trkpt>
      <trkpt lat="44.69966" lon="5.07259">
        <ele>296.7</ele>
        <time>2022-03-17T13:00:11Z</time>
      </trkpt>
      <trkpt lat="44.69994" lon="5.07256">
        <ele>295.26</ele>
        <time>2022-03-17T13:00:42Z</time>
      </trkpt>
      <trkpt lat="44.70026" lon="5.07257">
        <ele>295.74</ele>
        <time>2022-03-17T13:01:15Z</time>
      </trkpt>
      <trkpt lat="44.70026" lon="5.07296">
        <ele>293.82</ele>
        <time>2022-03-17T13:01:47Z</time>
      </trkpt>
      <trkpt lat="44.70024" lon="5.07336">
        <ele>289.97</ele>
        <time>2022-03-17T13:02:16Z</time>
      </trkpt>
      <trkpt lat="44.70026" lon="5.07374">
        <ele>287.09</ele>
        <time>2022-03-17T13:02:46Z</time>
      </trkpt>
      <trkpt lat="44.70055" lon="5.07385">
        <ele>286.61</ele>
        <time>2022-03-17T13:03:27Z</time>
      </trkpt>
      <trkpt lat="44.7008" lon="5.07412">
        <ele>285.17</ele>
        <time>2022-03-17T13:03:59Z</time>
      </trkpt>
      <trkpt lat="44.70109" lon="5.07433">
        <ele>284.21</ele>
        <time>2022-03-17T13:04:31Z</time>
      </trkpt>
      <trkpt lat="44.70135" lon="5.07453">
        <ele>281.8</ele>
        <time>2022-03-17T13:04:58Z</time>
      </trkpt>
      <trkpt lat="44.70163" lon="5.07486">
        <ele>278.92</ele>
        <time>2022-03-17T13:05:38Z</time>
      </trkpt>
      <trkpt lat="44.70167" lon="5.07537">
        <ele>273.63</ele>
        <time>2022-03-17T13:06:25Z</time>
      </trkpt>
      <trkpt lat="44.70142" lon="5.07565">
        <ele>269.31</ele>
        <time>2022-03-17T13:06:58Z</time>
      </trkpt>
      <trkpt lat="44.70121" lon="5.07605">
        <ele>264.5</ele>
        <time>2022-03-17T13:07:34Z</time>
      </trkpt>
      <trkpt lat="44.70111" lon="5.0765">
        <ele>259.69</ele>
        <time>2022-03-17T13:08:10Z</time>
      </trkpt>
      <trkpt lat="44.70098" lon="5.0769">
        <ele>256.81</ele>
        <time>2022-03-17T13:08:40Z</time>
      </trkpt>
      <trkpt lat="44.70089" lon="5.07734">
        <ele>254.41</ele>
        <time>2022-03-17T13:09:09Z</time>
      </trkpt>
      <trkpt lat="44.70084" lon="5.07775">
        <ele>250.56</ele>
        <time>2022-03-17T13:09:37Z</time>
      </trkpt>
      <trkpt lat="44.70078" lon="5.07806">
        <ele>248.64</ele>
        <time>2022-03-17T13:19:54Z</time>
      </trkpt>
      <trkpt lat="44.70075" lon="5.07853">
        <ele>245.27</ele>
        <time>2022-03-17T13:20:31Z</time>
      </trkpt>
      <trkpt lat="44.70105" lon="5.07922">
        <ele>242.39</ele>
        <time>2022-03-17T13:21:28Z</time>
      </trkpt>
      <trkpt lat="44.7013" lon="5.07955">
        <ele>241.43</ele>
        <time>2022-03-17T13:22:01Z</time>
      </trkpt>
      <trkpt lat="44.70153" lon="5.0798">
        <ele>241.43</ele>
        <time>2022-03-17T13:22:31Z</time>
      </trkpt>
      <trkpt lat="44.70166" lon="5.08028">
        <ele>238.54</ele>
        <time>2022-03-17T13:23:06Z</time>
      </trkpt>
      <trkpt lat="44.70117" lon="5.08053">
        <ele>238.54</ele>
        <time>2022-03-17T13:23:57Z</time>
      </trkpt>
      <trkpt lat="44.70072" lon="5.08053">
        <ele>243.83</ele>
        <time>2022-03-17T13:24:44Z</time>
      </trkpt>
      <trkpt lat="44.70042" lon="5.08049">
        <ele>246.23</ele>
        <time>2022-03-17T13:25:13Z</time>
      </trkpt>
      <trkpt lat="44.69986" lon="5.08045">
        <ele>250.56</ele>
        <time>2022-03-17T13:26:08Z</time>
      </trkpt>
      <trkpt lat="44.69946" lon="5.08031">
        <ele>252</ele>
        <time>2022-03-17T13:26:47Z</time>
      </trkpt>
      <trkpt lat="44.69927" lon="5.08063">
        <ele>253.44</ele>
        <time>2022-03-17T13:27:15Z</time>
      </trkpt>
      <trkpt lat="44.69914" lon="5.08099">
        <ele>254.41</ele>
        <time>2022-03-17T13:27:42Z</time>
      </trkpt>
      <trkpt lat="44.69902" lon="5.08134">
        <ele>255.37</ele>
        <time>2022-03-17T13:28:08Z</time>
      </trkpt>
      <trkpt lat="44.69887" lon="5.08167">
        <ele>255.85</ele>
        <time>2022-03-17T13:28:34Z</time>
      </trkpt>
      <trkpt lat="44.69869" lon="5.08199">
        <ele>256.81</ele>
        <time>2022-03-17T13:29:02Z</time>
      </trkpt>
      <trkpt lat="44.69851" lon="5.08229">
        <ele>256.81</ele>
        <time>2022-03-17T13:29:29Z</time>
      </trkpt>
      <trkpt lat="44.69832" lon="5.08262">
        <ele>254.41</ele>
        <time>2022-03-17T13:30:01Z</time>
      </trkpt>
      <trkpt lat="44.69841" lon="5.08299">
        <ele>254.89</ele>
        <time>2022-03-17T13:30:36Z</time>
      </trkpt>
      <trkpt lat="44.6998" lon="5.08343">
        <ele>271.71</ele>
        <time>2022-03-17T13:33:10Z</time>
      </trkpt>
      <trkpt lat="44.70011" lon="5.08353">
        <ele>271.71</ele>
        <time>2022-03-17T13:33:38Z</time>
      </trkpt>
      <trkpt lat="44.7004" lon="5.08351">
        <ele>270.75</ele>
        <time>2022-03-17T13:34:03Z</time>
      </trkpt>
      <trkpt lat="44.70068" lon="5.08343">
        <ele>268.35</ele>
        <time>2022-03-17T13:34:28Z</time>
      </trkpt>
      <trkpt lat="44.70096" lon="5.08346">
        <ele>268.35</ele>
        <time>2022-03-17T13:34:52Z</time>
      </trkpt>
      <trkpt lat="44.70105" lon="5.0838">
        <ele>267.38</ele>
        <time>2022-03-17T13:35:24Z</time>
      </trkpt>
      <trkpt lat="44.70104" lon="5.08419">
        <ele>266.42</ele>
        <time>2022-03-17T13:35:52Z</time>
      </trkpt>
      <trkpt lat="44.70102" lon="5.08459">
        <ele>266.9</ele>
        <time>2022-03-17T13:36:17Z</time>
      </trkpt>
      <trkpt lat="44.70117" lon="5.08487">
        <ele>264.98</ele>
        <time>2022-03-17T13:36:43Z</time>
      </trkpt>
      <trkpt lat="44.70143" lon="5.08496">
        <ele>264.02</ele>
        <time>2022-03-17T13:37:08Z</time>
      </trkpt>
      <trkpt lat="44.70165" lon="5.0852">
        <ele>263.06</ele>
        <time>2022-03-17T13:37:34Z</time>
      </trkpt>
      <trkpt lat="44.70156" lon="5.08557">
        <ele>260.65</ele>
        <time>2022-03-17T13:38:00Z</time>
      </trkpt>
      <trkpt lat="44.70148" lon="5.08604">
        <ele>254.41</ele>
        <time>2022-03-17T13:38:36Z</time>
      </trkpt>
      <trkpt lat="44.7014" lon="5.08683">
        <ele>244.31</ele>
        <time>2022-03-17T13:39:30Z</time>
      </trkpt>
      <trkpt lat="44.70137" lon="5.08788">
        <ele>236.62</ele>
        <time>2022-03-17T13:40:40Z</time>
      </trkpt>
      <trkpt lat="44.70136" lon="5.0883">
        <ele>236.62</ele>
        <time>2022-03-17T13:41:05Z</time>
      </trkpt>
      <trkpt lat="44.70128" lon="5.08869">
        <ele>236.62</ele>
        <time>2022-03-17T13:41:29Z</time>
      </trkpt>
      <trkpt lat="44.70121" lon="5.08908">
        <ele>236.62</ele>
        <time>2022-03-17T13:41:54Z</time>
      </trkpt>
      <trkpt lat="44.70109" lon="5.08957">
        <ele>239.51</ele>
        <time>2022-03-17T13:42:41Z</time>
      </trkpt>
      <trkpt lat="44.70091" lon="5.08986">
        <ele>239.51</ele>
        <time>2022-03-17T13:43:06Z</time>
      </trkpt>
      <trkpt lat="44.70071" lon="5.09021">
        <ele>239.51</ele>
        <time>2022-03-17T13:43:35Z</time>
      </trkpt>
      <trkpt lat="44.70053" lon="5.09055">
        <ele>238.06</ele>
        <time>2022-03-17T13:44:00Z</time>
      </trkpt>
      <trkpt lat="44.70034" lon="5.09086">
        <ele>236.62</ele>
        <time>2022-03-17T13:44:26Z</time>
      </trkpt>
      <trkpt lat="44.7001" lon="5.09115">
        <ele>235.18</ele>
        <time>2022-03-17T13:44:53Z</time>
      </trkpt>
      <trkpt lat="44.6998" lon="5.0913">
        <ele>233.74</ele>
        <time>2022-03-17T13:45:21Z</time>
      </trkpt>
      <trkpt lat="44.69968" lon="5.09159">
        <ele>233.26</ele>
        <time>2022-03-17T13:45:51Z</time>
      </trkpt>
      <trkpt lat="44.69979" lon="5.09207">
        <ele>235.18</ele>
        <time>2022-03-17T13:46:30Z</time>
      </trkpt>
      <trkpt lat="44.69963" lon="5.0927">
        <ele>236.62</ele>
        <time>2022-03-17T13:47:14Z</time>
      </trkpt>
      <trkpt lat="44.69947" lon="5.09333">
        <ele>237.1</ele>
        <time>2022-03-17T13:48:01Z</time>
      </trkpt>
      <trkpt lat="44.69936" lon="5.09377">
        <ele>237.1</ele>
        <time>2022-03-17T13:48:30Z</time>
      </trkpt>
      <trkpt lat="44.69931" lon="5.09418">
        <ele>235.66</ele>
        <time>2022-03-17T13:48:56Z</time>
      </trkpt>
      <trkpt lat="44.69928" lon="5.09463">
        <ele>235.66</ele>
        <time>2022-03-17T13:49:23Z</time>
      </trkpt>
      <trkpt lat="44.69923" lon="5.09507">
        <ele>235.18</ele>
        <time>2022-03-17T13:49:50Z</time>
      </trkpt>
      <trkpt lat="44.69924" lon="5.09552">
        <ele>235.18</ele>
        <time>2022-03-17T13:50:18Z</time>
      </trkpt>
      <trkpt lat="44.69909" lon="5.09592">
        <ele>235.18</ele>
        <time>2022-03-17T13:50:47Z</time>
      </trkpt>
      <trkpt lat="44.69883" lon="5.09638">
        <ele>238.54</ele>
        <time>2022-03-17T13:51:31Z</time>
      </trkpt>
      <trkpt lat="44.69874" lon="5.0968">
        <ele>236.62</ele>
        <time>2022-03-17T13:52:01Z</time>
      </trkpt>
      <trkpt lat="44.69878" lon="5.09713">
        <ele>233.74</ele>
        <time>2022-03-17T13:52:26Z</time>
      </trkpt>
      <trkpt lat="44.69861" lon="5.09768">
        <ele>232.3</ele>
        <time>2022-03-17T13:53:30Z</time>
      </trkpt>
      <trkpt lat="44.69822" lon="5.09783">
        <ele>234.7</ele>
        <time>2022-03-17T13:55:04Z</time>
      </trkpt>
    </trkseg>
  </trk>
</gpx>